createdAt,value
2023-01-25T00:01:50.545Z,11.73
2023-01-25T00:04:19.689Z,11.57
2023-01-25T00:06:48.346Z,10.70
2023-01-25T00:09:17.054Z,10.40
2023-01-25T00:11:45.713Z,10.40
2023-01-25T00:14:15.867Z,10.73
2023-01-25T00:16:44.638Z,11.43
2023-01-25T00:19:16.643Z,10.80
2023-01-25T00:21:45.009Z,11.63
2023-01-25T00:24:14.334Z,10.87
2023-01-25T00:26:44.828Z,10.73
2023-01-25T00:29:14.169Z,10.97
2023-01-25T00:31:59.678Z,10.47
2023-01-25T00:34:47.521Z,10.87
2023-01-25T00:37:25.268Z,10.40
2023-01-25T00:39:53.824Z,10.83
2023-01-25T00:42:22.663Z,10.10
2023-01-25T00:44:51.014Z,10.67
2023-01-25T00:47:21.466Z,10.83
2023-01-25T00:49:51.326Z,8.40
2023-01-25T00:52:20.768Z,9.70
2023-01-25T00:54:49.350Z,10.17
2023-01-25T00:57:17.656Z,10.33
2023-01-25T00:59:47.443Z,10.20
2023-01-25T01:02:16.280Z,10.73
2023-01-25T01:04:44.696Z,10.27
2023-01-25T01:07:16.210Z,10.73
2023-01-25T01:09:44.596Z,10.03
2023-01-25T01:12:12.820Z,10.67
2023-01-25T01:14:41.072Z,11.33
2023-01-25T01:17:09.289Z,11.73
2023-01-25T01:19:37.510Z,10.67
2023-01-25T01:22:05.832Z,12.37
2023-01-25T01:24:35.441Z,10.67
2023-01-25T01:27:04.537Z,11.20
2023-01-25T01:29:33.664Z,12.10
2023-01-25T01:32:02.123Z,12.13
2023-01-25T01:34:30.404Z,12.57
2023-01-25T01:36:58.720Z,11.37
2023-01-25T01:39:27.237Z,11.57
2023-01-25T01:41:56.958Z,9.73
2023-01-25T01:44:47.367Z,9.67
2023-01-25T01:47:23.294Z,11.17
2023-01-25T01:50:00.667Z,9.53
2023-01-25T01:52:37.067Z,9.90
2023-01-25T01:55:11.770Z,10.03
2023-01-25T01:57:45.833Z,9.63
2023-01-25T02:00:19.249Z,11.13
2023-01-25T02:02:50.931Z,8.50
2023-01-25T02:05:27.006Z,10.80
2023-01-25T02:07:57.491Z,9.53
2023-01-25T02:10:28.710Z,10.87
2023-01-25T02:13:00.732Z,9.83
2023-01-25T02:15:39.049Z,10.20
2023-01-25T02:18:07.522Z,10.30
2023-01-25T02:20:39.492Z,11.03
2023-01-25T02:23:20.056Z,11.07
2023-01-25T02:25:50.349Z,11.07
2023-01-25T02:28:24.184Z,10.27
2023-01-25T02:30:52.495Z,11.87
2023-01-25T02:33:23.885Z,12.33
2023-01-25T02:35:57.761Z,12.00
2023-01-25T02:38:26.986Z,12.63
2023-01-25T02:41:04.192Z,11.87
2023-01-25T02:43:36.076Z,12.37
2023-01-25T02:46:15.424Z,10.60
2023-01-25T02:48:46.429Z,10.93
2023-01-25T02:51:15.554Z,10.47
2023-01-25T02:53:43.925Z,11.87
2023-01-25T02:56:13.781Z,11.87
2023-01-25T02:58:42.346Z,11.10
2023-01-25T03:01:11.689Z,11.33
2023-01-25T03:03:42.915Z,10.87
2023-01-25T03:06:11.756Z,10.37
2023-01-25T03:08:41.402Z,10.70
2023-01-25T03:11:10.087Z,9.70
2023-01-25T03:13:40.081Z,10.77
2023-01-25T03:16:11.934Z,10.37
2023-01-25T03:18:42.825Z,9.90
2023-01-25T03:21:14.575Z,10.70
2023-01-25T03:23:44.321Z,9.60
2023-01-25T03:26:17.065Z,10.87
2023-01-25T03:29:03.391Z,10.57
2023-01-25T03:31:31.757Z,10.07
2023-01-25T03:34:00.555Z,9.37
2023-01-25T03:36:34.088Z,9.60
2023-01-25T03:39:02.419Z,8.97
2023-01-25T03:41:30.830Z,9.47
2023-01-25T03:44:02.602Z,8.47
2023-01-25T03:46:31.397Z,8.50
2023-01-25T03:49:00.051Z,8.03
2023-01-25T03:51:28.632Z,8.40
2023-01-25T03:53:57.247Z,8.20
2023-01-25T03:56:26.243Z,7.87
2023-01-25T03:59:08.925Z,7.93
2023-01-25T04:01:37.515Z,8.00
2023-01-25T04:04:06.229Z,8.20
2023-01-25T04:06:35.724Z,8.20
2023-01-25T04:09:05.131Z,8.60
2023-01-25T04:11:40.437Z,7.77
2023-01-25T04:14:11.601Z,8.13
2023-01-25T04:16:49.867Z,7.70
2023-01-25T04:19:38.737Z,8.00
2023-01-25T04:22:12.873Z,8.00
2023-01-25T04:24:41.791Z,8.60
2023-01-25T04:27:10.526Z,8.23
2023-01-25T04:29:48.414Z,8.87
2023-01-25T04:32:21.183Z,9.00
2023-01-25T04:34:49.858Z,8.80
2023-01-25T04:37:22.570Z,10.57
2023-01-25T04:39:58.252Z,9.87
2023-01-25T04:42:28.088Z,9.10
2023-01-25T04:44:59.877Z,9.40
2023-01-25T04:47:28.734Z,10.10
2023-01-25T04:49:57.787Z,10.47
2023-01-25T04:52:30.365Z,10.57
2023-01-25T04:54:59.041Z,9.20
2023-01-25T04:57:27.769Z,9.90
2023-01-25T04:59:56.322Z,10.73
2023-01-25T05:02:28.396Z,9.40
2023-01-25T05:04:57.132Z,9.10
2023-01-25T05:07:25.758Z,8.53
2023-01-25T05:09:54.455Z,9.40
2023-01-25T05:12:25.774Z,9.03
2023-01-25T05:14:58.502Z,9.40
2023-01-25T05:19:54.196Z,7.97
2023-01-25T05:22:24.978Z,7.60
2023-01-25T05:27:27.613Z,8.33
2023-01-25T05:29:57.002Z,8.97
2023-01-25T05:35:14.117Z,7.53
2023-01-25T05:37:42.612Z,7.30
2023-01-25T05:48:07.550Z,8.70
